Aviation Digital Data Service (ADDS)

Output produced by METARs form (1329 UTC 26 May 2018)
found at http://www.aviationweather.gov/adds/metars/
 
UTDD 261300Z 15002MPS 9999 FEW066CB 30/10 Q1010 R09/D NOSIG RMK QFE689/0919
TAF UTDD 261200Z 2613/2701 VRB02MPS 8000 FEW060CB SCT150
       
UTAA 261300Z 29006KT 250V340 9999 FEW050 38/01 Q1004 NOSIG
TAF UTAA 261050Z 2612/2712 02018KT 6000 SCT050CB SCT100 TX40/2612Z 530009 530909 
     TEMPO 2612/2617 26018KT 
     BECMG 2617/2619 27018KT BKN050 
     TEMPO 2619/2706 32016G26KT 3000 DRDU 
     TEMPO 2706/2712 VRB30KT 1500 TSRA DS VV003
       
UTAK 261300Z 32014KT CAVOK 28/09 Q1008 NOSIG
TAF UTAK 261030Z 2612/2712 34018KT 9999 SCT030 BKN100 530009 
     TEMPO 2612/2616 27018KT BKN033 
     TEMPO 2616/2622 30016KT 5000 BKN016 BKN100 
     TEMPO 2622/2704 29018G28KT 3000 -SHRA BKN008 SCT030CB 
     PROB30 
     TEMPO 2704/2706 VRB24KT -TSRA 570004
       
UTAM 261300Z 35006KT CAVOK 36/M07 Q1004 NOSIG
TAF UTAM 261030Z 2612/2712 25014KT CAVOK 530009 
     TEMPO 2612/2618 20010KT 3000 HZ NSC 
     TEMPO 2618/2701 29016KT 
     BECMG 2702/2705 33018G28KT 5000 BKN050 
     TEMPO 2706/2712 2000 DRDU SCT050CB
       
UTAT 261300Z 20006KT CAVOK 38/M07 Q1003 NOSIG
TAF UTAT 261035Z 2612/2712 15012KT CAVOK 530009 
     TEMPO 2612/2615 VRB04KT
       
UTAV 261300Z 23008KT CAVOK 37/M04 Q1004 NOSIG
TAF UTAV 261030Z 2612/2712 22012G22KT CAVOK 530009 
     TEMPO 2612/2618 VRB04KT
       
UTDD 261300Z 15002MPS 9999 FEW066CB 30/10 Q1010 R09/D NOSIG RMK QFE689/0919
TAF UTDD 261200Z 2613/2701 VRB02MPS 8000 FEW060CB SCT150
       
UTDK 261300Z 02007MPS 9999 NSC 31/11 Q1009 R01/09//70 RMK QFE700/0933
UTDL 261300Z 12002MPS 9999 FEW050CB 34/02 Q1007 R08/CLRD70 NOSIG RMK QFE717/0956
UTDT 261300Z 26002MPS 9999 FEW100 34/09 Q1006 35////// RMK QFE716/0954
UTFF 261300Z 34004KT 9999 NSC 32/02 Q1008 R99/CLRD70
UTFN 261300Z 18004KT 9999 NSC 32/03 Q1008 R28/CLRD70 NOSIG
TAF UTFN 261100Z 2612/2712 34010KT 9999 NSC 
     TEMPO 2612/2615 24010KT FEW050CB 
     TEMPO 2706/2712 21012G22KT FEW050CB SCT100
       
UTNN 261300Z 13004KT CAVOK 37/M06 Q1003 R33/CLRD60 NOSIG
TAF UTNN 261100Z 2612/2712 22010G20KT 9999 SCT050 SCT100 
     TEMPO 2612/2618 16014G24KT 3000 HZ
       
UTNU 261300Z 06008KT CAVOK 35/05 Q1003 R13/CLRD70 NOSIG
TAF UTNU 261102Z 2612/2712 08008G18KT 7000 NSC TX36/2709Z 
     TEMPO 2612/2618 VRB04KT
       
UTSA 261300Z 31008KT 280V340 9999 NSC 35/M01 Q1006 R25/CLRD70 NOSIG
TAF UTSA 261101Z 2612/2712 VRB03KT 7000 NSC 
     TEMPO 2612/2623 35010KT
       
UTSB 261300Z 34004KT CAVOK 36/01 Q1005 R01/CLRD70 NOSIG
TAF UTSB 261100Z 2612/2712 VRB03KT 7000 NSC 
     TEMPO 2612/2623 36010KT
       
UTSK 261300Z 27004KT CAVOK 36/M02 Q1007 R16/CLRD70
UTSS 261300Z 27010KT 9999 NSC 31/02 Q1009 R27/70D NOSIG
TAF COR UTSS 261057Z 2612/2712 11010G20KT 9999 NSC 
     TEMPO 2612/2615 30012G22KT
       
UTST 261300Z 00000KT 9999 FEW066CB 36/M00 Q1006 R88/CLRD70 NOSIG
TAF UTST 261100Z 2612/2712 VRB06KT 6000 NSC TX38/2711Z 
     TEMPO 2612/2615 SCT060CB
       
UTTT 261300Z 26004KT 230V290 CAVOK 33/04 Q1007 R08L/CLRD70 NOSIG
TAF UTTT 261100Z 2612/2712 24008KT CAVOK TX36/2709Z 
     TEMPO 2706/2712 29010G20KT
       
UTDL 261300Z 12002MPS 9999 FEW050CB 34/02 Q1007 R08/CLRD70 NOSIG RMK QFE717/0956